createdAt,value
2018-06-04T00:02:07.411Z,18.05
2018-06-04T00:04:39.412Z,18.24
2018-06-04T00:07:11.376Z,18.12
2018-06-04T00:09:43.336Z,18.27
2018-06-04T00:12:15.330Z,18.05
2018-06-04T00:14:47.297Z,17.95
2018-06-04T00:17:19.260Z,17.99
2018-06-04T00:19:51.218Z,18.04
2018-06-04T00:22:23.187Z,18.09
2018-06-04T00:24:55.126Z,17.93
2018-06-04T00:27:27.100Z,17.96
2018-06-04T00:29:59.071Z,17.99
2018-06-04T00:32:31.054Z,17.97
2018-06-04T00:35:03.023Z,17.80
2018-06-04T00:37:35.015Z,17.79
2018-06-04T00:40:06.991Z,17.69
2018-06-04T00:42:38.953Z,17.64
2018-06-04T00:45:10.922Z,17.54
2018-06-04T00:47:42.943Z,17.57
2018-06-04T00:50:14.891Z,17.59
2018-06-04T00:52:46.860Z,17.57
2018-06-04T00:55:18.812Z,17.60
2018-06-04T00:57:50.784Z,17.49
2018-06-04T01:00:22.771Z,17.53
2018-06-04T01:02:54.743Z,17.44
2018-06-04T01:05:26.703Z,17.43
2018-06-04T01:07:58.667Z,17.36
2018-06-04T01:10:30.623Z,17.40
2018-06-04T01:13:02.615Z,17.36
2018-06-04T01:15:34.628Z,17.28
2018-06-04T01:18:06.620Z,17.16
2018-06-04T01:20:38.587Z,17.19
2018-06-04T01:23:10.552Z,17.22
2018-06-04T01:25:42.513Z,17.22
2018-06-04T01:28:14.487Z,17.24
2018-06-04T01:30:46.447Z,17.16
2018-06-04T01:33:18.455Z,16.97
2018-06-04T01:35:50.404Z,17.00
2018-06-04T01:38:22.398Z,16.88
2018-06-04T01:40:54.331Z,16.73
2018-06-04T01:43:26.355Z,16.59
2018-06-04T01:45:58.317Z,16.50
2018-06-04T01:48:30.335Z,16.41
2018-06-04T01:51:03.529Z,16.33
2018-06-04T01:53:38.421Z,16.27
2018-06-04T01:56:10.421Z,16.26
2018-06-04T01:58:42.407Z,16.22
2018-06-04T02:01:15.080Z,16.05
2018-06-04T02:03:47.084Z,16.09
2018-06-04T02:06:19.031Z,16.18
2018-06-04T02:08:50.992Z,16.17
2018-06-04T02:11:22.955Z,16.25
2018-06-04T02:13:54.935Z,16.25
2018-06-04T02:16:26.884Z,16.19
2018-06-04T02:18:58.851Z,15.79
2018-06-04T02:21:30.812Z,16.02
2018-06-04T02:24:02.791Z,16.11
2018-06-04T02:26:34.760Z,16.18
2018-06-04T02:29:06.743Z,16.23
2018-06-04T02:31:38.702Z,16.29
2018-06-04T02:34:10.683Z,16.32
2018-06-04T02:36:42.640Z,16.24
2018-06-04T02:39:14.608Z,16.30
2018-06-04T02:41:46.616Z,16.33
2018-06-04T02:44:18.618Z,16.24
2018-06-04T02:46:50.584Z,16.15
2018-06-04T02:49:22.608Z,16.18
2018-06-04T02:51:54.609Z,16.18
2018-06-04T02:54:26.602Z,16.15
2018-06-04T02:56:58.548Z,16.25
2018-06-04T02:59:30.523Z,16.20
2018-06-04T03:02:02.494Z,16.25
2018-06-04T03:04:34.459Z,16.17
2018-06-04T03:07:06.419Z,16.16
2018-06-04T03:09:38.383Z,16.17
2018-06-04T03:12:10.321Z,16.15
2018-06-04T03:14:42.301Z,16.16
2018-06-04T03:17:14.251Z,16.22
2018-06-04T03:19:46.256Z,16.17
2018-06-04T03:22:18.288Z,16.20
2018-06-04T03:24:50.235Z,16.17
2018-06-04T03:27:22.191Z,16.17
2018-06-04T03:29:54.151Z,16.11
2018-06-04T03:32:26.113Z,16.05
2018-06-04T03:34:58.128Z,16.08
2018-06-04T03:37:30.072Z,16.13
2018-06-04T03:40:02.072Z,16.13
2018-06-04T03:42:34.016Z,16.14
2018-06-04T03:45:05.969Z,16.23
2018-06-04T03:47:37.935Z,16.31
2018-06-04T03:50:09.907Z,16.40
2018-06-04T03:52:41.864Z,16.41
2018-06-04T03:55:13.833Z,16.54
2018-06-04T03:57:45.903Z,16.62
2018-06-04T04:00:17.885Z,16.62
2018-06-04T04:02:49.915Z,16.71
2018-06-04T04:05:21.885Z,16.74
2018-06-04T04:07:53.824Z,16.79
2018-06-04T04:10:25.787Z,16.87
2018-06-04T04:12:57.731Z,16.94
2018-06-04T04:15:29.683Z,17.02
2018-06-04T04:18:01.646Z,17.23
2018-06-04T04:20:33.620Z,17.32
2018-06-04T04:23:06.155Z,17.69
2018-06-04T04:25:38.141Z,18.66
2018-06-04T04:28:10.113Z,19.81
2018-06-04T04:30:42.084Z,20.56
2018-06-04T04:33:14.052Z,21.27
2018-06-04T04:35:46.112Z,21.19
2018-06-04T04:38:18.064Z,21.74
2018-06-04T04:40:50.058Z,22.38
2018-06-04T04:43:22.007Z,22.23
2018-06-04T04:45:53.979Z,22.84
2018-06-04T04:48:25.928Z,22.76
2018-06-04T04:50:57.903Z,22.85
2018-06-04T04:53:29.852Z,23.59
2018-06-04T04:56:01.871Z,24.02
2018-06-04T04:58:33.848Z,24.20
2018-06-04T05:01:05.848Z,24.11
2018-06-04T05:03:37.811Z,23.76
2018-06-04T05:06:09.791Z,23.87
2018-06-04T05:08:41.792Z,24.74
2018-06-04T05:11:14.579Z,25.01
2018-06-04T05:13:46.592Z,25.15
2018-06-04T05:16:18.583Z,25.26
2018-06-04T05:18:50.603Z,25.42
2018-06-04T05:21:22.523Z,25.86
2018-06-04T05:23:55.012Z,25.98
2018-06-04T05:26:27.018Z,27.09
2018-06-04T05:28:58.954Z,27.29
2018-06-04T05:31:30.950Z,26.73
2018-06-04T05:34:02.916Z,26.60
2018-06-04T05:36:34.867Z,27.52
2018-06-04T05:39:08.551Z,27.25
2018-06-04T05:41:40.569Z,26.82
2018-06-04T05:44:12.544Z,26.83
2018-06-04T05:46:44.540Z,26.71
2018-06-04T05:49:16.519Z,27.44
2018-06-04T05:51:48.525Z,28.21
2018-06-04T05:54:20.476Z,27.92
2018-06-04T05:56:52.443Z,28.12
2018-06-04T05:59:24.416Z,28.36
2018-06-04T06:01:56.391Z,29.16
2018-06-04T06:04:28.352Z,29.28
2018-06-04T06:07:00.319Z,29.49
2018-06-04T06:09:32.278Z,29.15
2018-06-04T06:12:04.260Z,30.24
2018-06-04T06:14:36.230Z,30.77
2018-06-04T06:17:08.207Z,30.95
2018-06-04T06:19:40.148Z,31.00
2018-06-04T06:22:12.161Z,31.79
2018-06-04T06:24:44.112Z,30.94
2018-06-04T06:27:16.082Z,32.09
2018-06-04T06:29:48.036Z,32.20
2018-06-04T06:32:20.016Z,32.76
2018-06-04T06:34:51.969Z,32.31
2018-06-04T06:37:23.927Z,31.14
2018-06-04T06:39:55.880Z,31.36
2018-06-04T06:42:28.535Z,31.02
2018-06-04T06:45:00.498Z,31.25
2018-06-04T06:47:32.480Z,31.74
2018-06-04T06:50:04.736Z,31.08
2018-06-04T06:52:36.638Z,31.51
2018-06-04T06:55:08.580Z,31.72
2018-06-04T06:57:40.610Z,31.94
2018-06-04T07:00:12.603Z,32.37
2018-06-04T07:02:44.560Z,33.79
2018-06-04T07:05:16.524Z,33.83
2018-06-04T07:07:48.523Z,32.68
2018-06-04T07:10:20.591Z,32.67
2018-06-04T07:12:52.570Z,33.55
2018-06-04T07:15:24.527Z,33.57
2018-06-04T07:17:57.569Z,33.79
2018-06-04T07:20:29.542Z,35.00
2018-06-04T07:23:01.507Z,34.94
2018-06-04T07:25:33.467Z,34.15
2018-06-04T07:28:05.431Z,35.11
2018-06-04T07:30:37.389Z,33.64
2018-06-04T07:33:09.372Z,34.66
2018-06-04T07:35:41.327Z,35.56
2018-06-04T07:38:13.301Z,35.77
2018-06-04T07:40:45.263Z,35.71
2018-06-04T07:43:17.239Z,34.88
2018-06-04T07:45:49.212Z,35.76
2018-06-04T07:48:21.196Z,35.33
2018-06-04T07:50:53.163Z,35.86
2018-06-04T07:53:25.203Z,35.81
2018-06-04T07:55:57.188Z,35.40
2018-06-04T07:58:29.164Z,36.05
2018-06-04T08:01:01.128Z,36.94
2018-06-04T08:03:33.084Z,36.99
2018-06-04T08:06:05.068Z,36.58
2018-06-04T08:08:37.084Z,36.57
2018-06-04T08:11:09.067Z,37.42
2018-06-04T08:13:41.051Z,37.18
2018-06-04T08:16:13.009Z,35.81
2018-06-04T08:18:44.979Z,36.40
2018-06-04T08:21:16.959Z,36.58
2018-06-04T08:23:48.958Z,37.55
2018-06-04T08:26:21.013Z,38.13
2018-06-04T08:28:53.018Z,36.46
2018-06-04T08:31:24.992Z,34.93
2018-06-04T08:33:56.973Z,34.95
2018-06-04T08:36:28.916Z,33.47
2018-06-04T08:39:00.879Z,32.15
2018-06-04T08:41:32.839Z,31.34
2018-06-04T08:44:04.815Z,30.50
2018-06-04T08:46:36.771Z,29.80
2018-06-04T08:49:08.742Z,30.09
2018-06-04T08:51:40.732Z,31.40
2018-06-04T08:54:12.723Z,32.62
2018-06-04T08:56:44.689Z,32.84
2018-06-04T08:59:16.700Z,33.21
2018-06-04T09:01:48.692Z,32.41
2018-06-04T09:04:21.422Z,33.98
2018-06-04T09:06:53.431Z,35.07
2018-06-04T09:09:25.495Z,36.20
2018-06-04T09:11:57.570Z,34.89
2018-06-04T09:14:30.135Z,33.21
2018-06-04T09:17:02.083Z,34.04
2018-06-04T09:19:34.075Z,33.94
2018-06-04T09:22:06.083Z,33.41
2018-06-04T09:24:38.037Z,33.59
2018-06-04T09:27:10.059Z,33.84
2018-06-04T09:29:42.127Z,31.92
2018-06-04T09:32:14.185Z,33.09
2018-06-04T09:34:46.160Z,35.57
2018-06-04T09:37:18.095Z,36.56
2018-06-04T09:39:50.064Z,35.52
2018-06-04T09:42:22.109Z,34.94
2018-06-04T09:44:54.096Z,33.13
2018-06-04T09:47:26.060Z,33.79
2018-06-04T09:49:58.019Z,33.10
2018-06-04T09:52:29.990Z,33.21
2018-06-04T09:55:02.064Z,34.22
2018-06-04T09:57:34.032Z,34.69
2018-06-04T10:00:06.073Z,35.08
2018-06-04T10:02:38.024Z,34.38
2018-06-04T10:05:10.014Z,34.91
2018-06-04T10:07:41.975Z,34.04
2018-06-04T10:10:14.023Z,33.13
2018-06-04T10:12:45.980Z,33.31
2018-06-04T10:15:17.971Z,32.98
2018-06-04T10:17:49.976Z,34.67
2018-06-04T10:20:21.941Z,35.36
2018-06-04T10:22:53.904Z,34.53
2018-06-04T10:25:25.917Z,34.41
2018-06-04T10:27:57.924Z,33.36
2018-06-04T10:30:29.901Z,33.67
2018-06-04T10:33:01.884Z,33.65
2018-06-04T10:35:33.875Z,32.90
2018-06-04T10:38:05.840Z,32.44
2018-06-04T10:40:37.933Z,33.67
2018-06-04T10:43:09.893Z,34.23
2018-06-04T10:45:41.970Z,34.09
2018-06-04T10:48:13.941Z,34.62
2018-06-04T10:50:45.947Z,35.11
2018-06-04T10:53:17.911Z,35.24
2018-06-04T10:55:49.891Z,35.18
2018-06-04T10:58:21.855Z,35.63
2018-06-04T11:00:53.892Z,34.59
2018-06-04T11:03:25.887Z,33.08
2018-06-04T11:05:57.869Z,32.39
2018-06-04T11:08:29.842Z,31.94
2018-06-04T11:11:01.823Z,32.91
2018-06-04T11:13:35.294Z,34.13
2018-06-04T11:16:07.280Z,34.92
2018-06-04T11:18:39.275Z,34.23
2018-06-04T11:21:11.247Z,33.91
2018-06-04T11:23:43.276Z,34.93
2018-06-04T11:26:15.471Z,35.55
2018-06-04T11:28:47.527Z,36.77
2018-06-04T11:31:19.596Z,36.51
2018-06-04T11:33:51.663Z,37.39
2018-06-04T11:36:23.803Z,35.80
2018-06-04T11:38:55.811Z,34.20
2018-06-04T11:41:27.859Z,34.80
2018-06-04T11:43:59.849Z,35.41
2018-06-04T11:46:31.900Z,36.31
2018-06-04T11:49:03.951Z,35.41
2018-06-04T11:51:35.904Z,33.10
2018-06-04T11:54:07.856Z,32.21
2018-06-04T11:56:39.858Z,30.94
2018-06-04T11:59:11.899Z,32.82
2018-06-04T12:01:43.906Z,34.18
2018-06-04T12:04:15.934Z,37.15
2018-06-04T12:06:47.911Z,37.30
2018-06-04T12:09:19.959Z,37.45
2018-06-04T12:11:52.009Z,36.08
2018-06-04T12:14:23.942Z,36.55
2018-06-04T12:16:55.963Z,36.23
2018-06-04T12:19:27.994Z,35.43
2018-06-04T12:22:00.006Z,35.85
2018-06-04T12:24:32.046Z,36.18
2018-06-04T12:27:04.030Z,34.75
2018-06-04T12:29:36.019Z,33.24
2018-06-04T12:32:07.983Z,33.09
2018-06-04T12:34:39.942Z,32.89
2018-06-04T12:37:11.940Z,32.64
2018-06-04T12:39:43.915Z,30.46
2018-06-04T12:42:15.899Z,30.10
2018-06-04T12:44:47.848Z,31.01
2018-06-04T12:47:19.825Z,30.92
2018-06-04T12:49:51.830Z,30.70
2018-06-04T12:52:23.799Z,32.75
2018-06-04T12:54:55.770Z,34.23
2018-06-04T12:57:27.758Z,34.73
2018-06-04T12:59:59.718Z,35.41
2018-06-04T13:02:31.686Z,37.07
2018-06-04T13:05:03.692Z,38.47
2018-06-04T13:07:35.681Z,37.51
2018-06-04T13:10:07.679Z,38.87
2018-06-04T13:12:39.667Z,39.77
2018-06-04T13:15:11.671Z,38.62
2018-06-04T13:17:43.670Z,35.87
2018-06-04T13:20:15.632Z,33.20
2018-06-04T13:22:47.595Z,33.52
2018-06-04T13:25:19.636Z,32.53
2018-06-04T13:27:51.646Z,32.05
2018-06-04T13:30:23.629Z,34.00
2018-06-04T13:32:55.616Z,36.09
2018-06-04T13:35:27.587Z,38.69
2018-06-04T13:37:59.575Z,38.09
2018-06-04T13:40:31.558Z,36.11
2018-06-04T13:43:03.595Z,36.45
2018-06-04T13:45:35.611Z,36.47
2018-06-04T13:48:07.610Z,37.50
2018-06-04T13:50:39.595Z,38.20
2018-06-04T13:53:11.570Z,39.24
2018-06-04T13:55:43.558Z,36.94
2018-06-04T13:58:15.531Z,35.59
2018-06-04T14:00:47.490Z,33.17
2018-06-04T14:03:19.483Z,33.64
2018-06-04T14:05:51.425Z,34.77
2018-06-04T14:08:23.407Z,34.95
2018-06-04T14:10:55.371Z,34.95
2018-06-04T14:13:27.358Z,36.10
2018-06-04T14:15:59.322Z,36.11
2018-06-04T14:18:31.307Z,36.90
2018-06-04T14:21:03.306Z,36.41
2018-06-04T14:23:35.283Z,35.93
2018-06-04T14:26:07.280Z,37.12
2018-06-04T14:28:39.293Z,37.06
2018-06-04T14:31:11.250Z,36.32
2018-06-04T14:33:43.246Z,35.56
2018-06-04T14:36:15.183Z,35.72
2018-06-04T14:38:47.892Z,34.58
2018-06-04T14:41:19.870Z,34.08
2018-06-04T14:43:52.870Z,35.46
2018-06-04T14:46:24.843Z,34.03
2018-06-04T14:48:56.851Z,33.69
2018-06-04T14:51:28.811Z,32.35
2018-06-04T14:54:00.775Z,31.70
2018-06-04T14:56:32.808Z,32.17
2018-06-04T14:59:04.751Z,33.36
2018-06-04T15:01:36.855Z,34.75
2018-06-04T15:04:08.908Z,35.03
2018-06-04T15:06:40.874Z,35.37
2018-06-04T15:09:12.858Z,36.13
2018-06-04T15:11:44.813Z,36.21
2018-06-04T15:17:52.399Z,37.20
2018-06-04T15:20:24.409Z,36.41
2018-06-04T15:22:56.358Z,35.93
2018-06-04T15:25:28.326Z,33.19
2018-06-04T15:28:00.332Z,31.70
2018-06-04T15:30:32.362Z,30.27
2018-06-04T15:33:04.315Z,29.89
2018-06-04T15:35:36.311Z,30.42
2018-06-04T15:38:08.322Z,32.61
2018-06-04T15:40:40.343Z,32.57
2018-06-04T15:43:12.291Z,32.53
2018-06-04T15:45:44.267Z,33.48
2018-06-04T15:48:16.310Z,34.48
2018-06-04T15:50:48.286Z,34.62
2018-06-04T15:53:20.259Z,35.90
2018-06-04T15:55:52.334Z,35.37
2018-06-04T15:58:24.329Z,36.71
2018-06-04T16:00:56.329Z,37.02
2018-06-04T16:03:28.307Z,36.97
2018-06-04T16:06:00.302Z,36.32
2018-06-04T16:08:32.339Z,35.68
2018-06-04T16:11:04.318Z,33.54
2018-06-04T16:13:36.346Z,33.62
2018-06-04T16:16:08.330Z,32.73
2018-06-04T16:18:40.292Z,33.50
2018-06-04T16:21:12.270Z,33.11
2018-06-04T16:23:44.219Z,33.46
2018-06-04T16:26:16.216Z,33.91
2018-06-04T16:28:48.196Z,33.31
2018-06-04T16:31:20.182Z,33.02
2018-06-04T16:33:52.190Z,33.60
2018-06-04T16:36:24.179Z,34.26
2018-06-04T16:38:56.172Z,34.87
2018-06-04T16:41:28.162Z,34.51
2018-06-04T16:44:00.168Z,34.88
2018-06-04T16:46:32.217Z,33.69
2018-06-04T16:49:04.211Z,32.29
2018-06-04T16:51:36.184Z,32.56
2018-06-04T16:54:08.155Z,31.78
2018-06-04T16:56:40.135Z,32.21
2018-06-04T16:59:12.103Z,31.71
2018-06-04T17:01:44.083Z,31.29
2018-06-04T17:04:16.044Z,30.62
2018-06-04T17:06:48.030Z,30.39
2018-06-04T17:09:20.000Z,29.97
2018-06-04T17:11:52.015Z,29.72
2018-06-04T17:14:23.997Z,29.47
2018-06-04T17:16:55.962Z,29.27
2018-06-04T17:19:27.927Z,28.85
2018-06-04T17:22:00.498Z,28.56
2018-06-04T17:24:32.447Z,28.42
2018-06-04T17:27:04.424Z,28.52
2018-06-04T17:29:36.387Z,28.63
2018-06-04T17:32:08.365Z,28.37
2018-06-04T17:34:40.338Z,28.07
2018-06-04T17:37:12.335Z,27.81
2018-06-04T17:39:44.326Z,27.69
2018-06-04T17:42:16.288Z,27.78
2018-06-04T17:44:48.243Z,27.93
2018-06-04T17:47:20.215Z,27.91
2018-06-04T17:49:52.191Z,28.03
2018-06-04T17:52:24.139Z,27.94
2018-06-04T17:54:56.129Z,27.90
2018-06-04T17:57:28.111Z,27.78
2018-06-04T18:00:00.071Z,27.63
2018-06-04T18:02:32.233Z,27.52
2018-06-04T18:05:04.728Z,27.44
2018-06-04T18:07:36.735Z,27.21
2018-06-04T18:10:08.710Z,27.04
2018-06-04T18:12:40.700Z,26.79
2018-06-04T18:15:12.679Z,26.70
2018-06-04T18:17:44.643Z,26.71
2018-06-04T18:20:16.643Z,26.60
2018-06-04T18:22:48.630Z,26.46
2018-06-04T18:25:20.658Z,26.32
2018-06-04T18:27:52.682Z,26.21
2018-06-04T18:30:24.656Z,25.96
2018-06-04T18:32:56.632Z,25.93
2018-06-04T18:35:28.596Z,25.73
2018-06-04T18:38:00.587Z,25.80
2018-06-04T18:40:32.566Z,25.80
2018-06-04T18:43:04.546Z,25.71
2018-06-04T18:45:36.521Z,25.66
2018-06-04T18:48:08.543Z,25.54
2018-06-04T18:50:40.496Z,25.33
2018-06-04T18:53:12.472Z,25.23
2018-06-04T18:55:44.455Z,25.08
2018-06-04T18:58:16.441Z,24.90
2018-06-04T19:00:48.671Z,24.64
2018-06-04T19:03:20.668Z,24.78
2018-06-04T19:05:52.648Z,24.72
2018-06-04T19:08:24.619Z,24.65
2018-06-04T19:10:56.587Z,24.70
2018-06-04T19:13:28.574Z,24.74
2018-06-04T19:16:01.024Z,24.51
2018-06-04T19:18:33.020Z,24.47
2018-06-04T19:21:05.038Z,24.45
2018-06-04T19:23:37.023Z,24.30
2018-06-04T19:26:08.971Z,23.92
2018-06-04T19:28:40.953Z,23.74
2018-06-04T19:31:19.978Z,23.48
2018-06-04T19:33:51.957Z,23.37
2018-06-04T19:36:23.923Z,23.23
2018-06-04T19:38:55.894Z,23.05
2018-06-04T19:41:27.919Z,23.07
2018-06-04T19:44:00.695Z,22.94
2018-06-04T19:46:32.664Z,23.09
2018-06-04T19:49:04.739Z,23.04
2018-06-04T19:51:36.743Z,23.02
2018-06-04T19:54:08.686Z,22.88
2018-06-04T19:56:40.680Z,22.60
2018-06-04T19:59:12.691Z,22.40
2018-06-04T20:01:44.649Z,22.44
2018-06-04T20:04:16.614Z,22.38
2018-06-04T20:06:48.555Z,22.31
2018-06-04T20:09:20.576Z,22.43
2018-06-04T20:11:52.568Z,22.65
2018-06-04T20:14:24.497Z,22.99
2018-06-04T20:16:56.480Z,23.14
2018-06-04T20:19:28.467Z,23.36
2018-06-04T20:22:00.435Z,23.29
2018-06-04T20:24:32.475Z,23.11
2018-06-04T20:27:04.739Z,23.18
2018-06-04T20:29:36.702Z,22.98
2018-06-04T20:32:08.662Z,22.73
2018-06-04T20:34:40.642Z,22.60
2018-06-04T20:37:12.611Z,22.57
2018-06-04T20:39:44.658Z,22.43
2018-06-04T20:42:16.695Z,22.36
2018-06-04T20:44:48.767Z,22.33
2018-06-04T20:47:20.828Z,22.34
2018-06-04T20:49:52.891Z,22.15
2018-06-04T20:52:24.850Z,22.16
2018-06-04T20:54:56.830Z,21.98
2018-06-04T20:57:28.823Z,21.81
2018-06-04T21:00:00.790Z,21.56
2018-06-04T21:02:32.754Z,21.60
2018-06-04T21:05:04.719Z,21.61
2018-06-04T21:07:36.680Z,21.62
2018-06-04T21:10:08.711Z,21.70
2018-06-04T21:12:40.671Z,21.74
2018-06-04T21:15:13.209Z,21.85
2018-06-04T21:17:45.151Z,21.88
2018-06-04T21:20:17.128Z,21.90
2018-06-04T21:22:49.097Z,21.74
2018-06-04T21:25:21.088Z,21.82
2018-06-04T21:27:53.151Z,21.65
2018-06-04T21:30:25.228Z,21.51
2018-06-04T21:32:57.234Z,21.50
2018-06-04T21:35:29.220Z,21.49
2018-06-04T21:38:01.188Z,21.49
2018-06-04T21:40:33.166Z,21.51
2018-06-04T21:43:05.191Z,21.50
2018-06-04T21:45:37.172Z,21.42
2018-06-04T21:48:09.160Z,21.36
2018-06-04T21:50:41.145Z,21.40
2018-06-04T21:53:13.096Z,21.18
2018-06-04T21:55:45.070Z,21.13
2018-06-04T21:58:17.031Z,21.04
2018-06-04T22:00:49.120Z,21.02
2018-06-04T22:03:21.105Z,20.92
2018-06-04T22:05:53.072Z,20.95
2018-06-04T22:08:25.074Z,20.92
2018-06-04T22:10:57.071Z,20.91
2018-06-04T22:13:29.050Z,20.78
2018-06-04T22:16:01.093Z,20.53
2018-06-04T22:18:33.060Z,20.47
2018-06-04T22:21:05.040Z,20.67
2018-06-04T22:23:37.035Z,20.42
2018-06-04T22:26:09.008Z,20.39
2018-06-04T22:28:40.968Z,20.44
2018-06-04T22:31:12.987Z,20.60
2018-06-04T22:33:44.940Z,20.67
2018-06-04T22:36:16.927Z,20.95
2018-06-04T22:38:48.922Z,21.06
2018-06-04T22:41:20.947Z,20.92
2018-06-04T22:43:52.911Z,20.92
2018-06-04T22:46:24.883Z,20.79
2018-06-04T22:48:56.922Z,20.78
2018-06-04T22:51:28.898Z,20.59
2018-06-04T22:54:00.859Z,20.56
2018-06-04T22:56:32.831Z,20.46
2018-06-04T22:59:11.530Z,20.33
2018-06-04T23:01:43.491Z,20.44
2018-06-04T23:04:16.097Z,20.34
2018-06-04T23:06:48.059Z,20.44
2018-06-04T23:09:20.011Z,20.38
2018-06-04T23:11:51.986Z,20.42
2018-06-04T23:14:23.934Z,20.43
2018-06-04T23:16:55.900Z,20.57
2018-06-04T23:19:27.859Z,20.55
2018-06-04T23:21:59.839Z,20.45
2018-06-04T23:24:31.800Z,20.50
2018-06-04T23:27:03.792Z,20.34
2018-06-04T23:29:35.754Z,20.24
2018-06-04T23:32:07.715Z,20.17
2018-06-04T23:34:39.651Z,20.10
2018-06-04T23:37:11.606Z,19.93
2018-06-04T23:39:43.574Z,19.72
2018-06-04T23:42:15.568Z,19.50
2018-06-04T23:44:47.531Z,19.28
2018-06-04T23:47:19.502Z,19.24
2018-06-04T23:49:51.434Z,19.19
2018-06-04T23:52:23.387Z,19.13
2018-06-04T23:54:55.330Z,18.98
2018-06-04T23:57:27.295Z,18.76
2018-06-04T23:59:59.259Z,18.69
